Time;durP1;ratioP1;P1;durP2;ratioP2;P2;SDS_P1;SDS_P2;PMS_P1;PMS_P2;Temp;Humidity;BMP_temperature;BMP_pressure;BME280_temperature;BME280_humidity;BME280_pressure;Samples;Min_cycle;Max_cycle;Signal;HPM_P1;HPM_P2
2022/04/07 00:01:06;;;;;;;7.70;6.70;;;8.30;99.90;;;;;;4995461;28;21162;-55
2022/04/07 00:03:31;;;;;;;7.45;6.25;;;8.30;99.90;;;;;;4995985;28;20038;-52
2022/04/07 00:05:57;;;;;;;7.15;6.55;;;8.30;99.90;;;;;;4996321;28;20089;-53
2022/04/07 00:08:23;;;;;;;7.30;6.60;;;8.30;99.90;;;;;;4996604;28;20453;-52
2022/04/07 00:10:50;;;;;;;8.20;7.40;;;8.30;99.90;;;;;;4996420;28;20061;-53
2022/04/07 00:13:16;;;;;;;7.82;6.97;;;8.30;99.90;;;;;;4996363;28;20026;-53
2022/04/07 00:15:42;;;;;;;7.32;6.63;;;8.30;99.90;;;;;;4995943;28;20660;-53
2022/04/07 00:18:08;;;;;;;7.22;6.55;;;8.40;99.90;;;;;;4996362;28;20119;-52
2022/04/07 00:20:34;;;;;;;8.48;7.38;;;8.30;99.90;;;;;;4995608;28;20066;-55
2022/04/07 00:22:59;;;;;;;9.05;7.15;;;8.30;99.90;;;;;;4995672;28;20467;-55
2022/04/07 00:25:25;;;;;;;8.40;7.60;;;8.40;99.90;;;;;;4996230;28;20034;-54
2022/04/07 00:27:51;;;;;;;8.75;7.50;;;8.30;99.90;;;;;;4995765;28;20030;-56
2022/04/07 00:30:20;;;;;;;8.68;6.68;;;8.30;99.90;;;;;;4995865;28;20037;-57
2022/04/07 00:32:47;;;;;;;8.05;7.30;;;8.30;99.90;;;;;;4989233;28;20109;-54
2022/04/07 00:35:12;;;;;;;7.57;6.72;;;8.30;99.90;;;;;;4991238;28;20034;-58
2022/04/07 00:37:38;;;;;;;8.65;7.20;;;8.40;99.90;;;;;;4992973;28;20089;-58
2022/04/07 00:40:06;;;;;;;7.03;6.32;;;8.40;99.90;;;;;;4993508;28;20108;-57
2022/04/07 00:42:32;;;;;;;7.30;6.60;;;8.40;99.90;;;;;;5002355;28;20030;-53
2022/04/07 00:44:57;;;;;;;7.45;6.57;;;8.40;99.90;;;;;;5008549;28;20026;-53
2022/04/07 00:47:24;;;;;;;7.15;6.45;;;8.40;99.90;;;;;;4993020;28;20104;-58
2022/04/07 00:49:49;;;;;;;6.95;6.30;;;8.40;99.90;;;;;;5004974;28;20030;-54
2022/04/07 00:52:16;;;;;;;10.40;7.03;;;8.50;99.90;;;;;;4991415;28;20126;-55
2022/04/07 00:54:42;;;;;;;7.78;6.25;;;8.50;99.90;;;;;;4991796;28;20553;-51
2022/04/07 00:57:09;;;;;;;7.47;6.53;;;8.50;99.90;;;;;;4992614;28;20058;-55
2022/04/07 00:59:37;;;;;;;8.88;7.20;;;8.50;99.90;;;;;;4989929;28;20365;-55
2022/04/07 01:02:03;;;;;;;7.05;6.30;;;8.50;99.90;;;;;;4990355;28;20022;-58
2022/04/07 01:04:29;;;;;;;6.38;5.78;;;8.60;99.90;;;;;;4990498;28;20065;-58
2022/04/07 01:06:55;;;;;;;7.00;6.20;;;8.60;99.90;;;;;;4992342;28;20041;-55
2022/04/07 01:09:21;;;;;;;7.43;6.03;;;8.60;99.90;;;;;;4992267;28;20022;-55
2022/04/07 01:11:49;;;;;;;6.75;5.80;;;8.60;99.90;;;;;;4992460;28;20061;-57
2022/04/07 01:14:14;;;;;;;6.55;5.95;;;8.50;99.90;;;;;;4991957;28;20045;-51
2022/04/07 01:16:40;;;;;;;9.50;6.18;;;8.50;99.90;;;;;;4992373;28;20034;-55
2022/04/07 01:19:09;;;;;;;6.90;5.82;;;8.40;99.90;;;;;;4992537;28;20054;-54
2022/04/07 01:21:36;;;;;;;6.72;6.13;;;8.50;99.90;;;;;;4992194;28;20022;-54
2022/04/07 01:24:06;;;;;;;6.80;5.82;;;8.50;99.90;;;;;;4992111;28;20457;-55
2022/04/07 01:26:39;;;;;;;6.85;6.15;;;8.50;99.90;;;;;;4992414;28;20080;-54
2022/04/07 01:29:10;;;;;;;6.95;5.95;;;8.50;99.90;;;;;;4992269;28;20026;-55
2022/04/07 01:31:36;;;;;;;7.85;6.25;;;8.50;99.90;;;;;;4992056;28;20397;-51
2022/04/07 01:34:05;;;;;;;6.32;5.78;;;8.40;99.90;;;;;;4991915;28;20022;-56
2022/04/07 01:36:35;;;;;;;8.40;5.72;;;8.40;99.90;;;;;;4990602;28;20025;-56
2022/04/07 01:39:02;;;;;;;8.82;6.03;;;8.50;99.90;;;;;;4991955;28;20029;-53
2022/04/07 01:41:28;;;;;;;7.90;6.40;;;8.40;99.90;;;;;;4992023;28;20528;-53
2022/04/07 01:43:57;;;;;;;8.60;5.95;;;8.40;99.90;;;;;;4991178;28;20022;-56
2022/04/07 01:46:24;;;;;;;7.07;6.25;;;8.40;99.90;;;;;;4991871;28;20112;-55
2022/04/07 01:48:51;;;;;;;7.05;6.35;;;8.40;99.90;;;;;;4991580;28;20096;-56
2022/04/07 01:51:18;;;;;;;7.95;6.30;;;8.30;99.90;;;;;;4991053;28;20034;-54
2022/04/07 01:53:43;;;;;;;6.78;6.03;;;8.30;99.90;;;;;;4991374;28;20015;-52
2022/04/07 01:56:10;;;;;;;9.00;7.18;;;8.30;99.90;;;;;;4991646;28;20038;-54
2022/04/07 01:58:36;;;;;;;9.43;6.80;;;8.30;99.90;;;;;;4991288;28;20022;-55
2022/04/07 02:01:03;;;;;;;7.50;6.75;;;8.40;99.90;;;;;;4991538;28;20025;-54
2022/04/07 02:03:28;;;;;;;10.57;7.10;;;8.40;99.90;;;;;;4990305;28;20018;-53
2022/04/07 02:05:54;;;;;;;7.70;6.97;;;8.30;99.90;;;;;;5004076;28;20100;-57
2022/04/07 02:08:19;;;;;;;10.30;6.63;;;8.40;99.90;;;;;;5011239;28;20113;-51
2022/04/07 02:10:45;;;;;;;10.35;7.30;;;8.40;99.90;;;;;;5006088;28;20031;-53
2022/04/07 02:13:10;;;;;;;7.95;7.00;;;8.40;99.90;;;;;;4990992;28;20030;-53
2022/04/07 02:15:36;;;;;;;8.88;6.18;;;8.40;99.90;;;;;;4989441;28;20026;-54
2022/04/07 02:18:02;;;;;;;7.95;6.30;;;8.40;99.90;;;;;;4991098;28;20027;-56
2022/04/07 02:20:27;;;;;;;7.22;6.53;;;8.40;99.90;;;;;;4990820;28;20461;-53
2022/04/07 02:22:53;;;;;;;7.72;6.57;;;8.30;99.90;;;;;;4990424;28;20150;-56
2022/04/07 02:25:22;;;;;;;7.25;6.32;;;8.40;99.90;;;;;;4990965;28;20022;-51
2022/04/07 02:27:49;;;;;;;8.10;6.60;;;8.40;99.90;;;;;;4990758;28;20038;-53
2022/04/07 02:30:15;;;;;;;8.00;7.05;;;8.40;99.90;;;;;;4990495;28;20030;-53
2022/04/07 02:32:42;;;;;;;6.78;6.00;;;8.40;99.90;;;;;;4990366;28;20030;-54
2022/04/07 02:35:10;;;;;;;8.38;6.85;;;8.40;99.90;;;;;;4990699;28;20049;-54
2022/04/07 02:37:35;;;;;;;7.43;6.63;;;8.40;99.90;;;;;;4990541;28;20436;-57
2022/04/07 02:40:02;;;;;;;7.05;6.35;;;8.40;99.90;;;;;;4990750;28;20101;-57
2022/04/07 02:42:28;;;;;;;7.68;6.07;;;8.40;99.90;;;;;;4990121;28;20022;-56
2022/04/07 02:44:53;;;;;;;7.15;6.45;;;8.40;99.90;;;;;;4990604;28;20447;-55
2022/04/07 02:47:19;;;;;;;8.15;6.10;;;8.40;99.90;;;;;;4990442;28;20035;-53
2022/04/07 02:49:45;;;;;;;8.15;6.22;;;8.40;99.90;;;;;;4990349;28;20042;-56
2022/04/07 02:52:11;;;;;;;8.10;6.32;;;8.40;99.90;;;;;;4990351;28;20034;-54
2022/04/07 02:54:37;;;;;;;7.88;6.60;;;8.50;99.90;;;;;;4989263;28;20038;-53
2022/04/07 02:57:04;;;;;;;7.57;6.75;;;8.50;99.90;;;;;;4990207;28;20057;-55
2022/04/07 02:59:30;;;;;;;8.73;6.72;;;8.40;99.90;;;;;;4971742;28;20037;-55
2022/04/07 03:01:56;;;;;;;6.78;5.85;;;8.50;99.90;;;;;;4990317;28;20109;-53
2022/04/07 03:04:24;;;;;;;7.53;5.75;;;8.50;99.90;;;;;;4990032;28;20454;-53
2022/04/07 03:06:51;;;;;;;10.48;6.20;;;8.40;99.90;;;;;;4990124;28;20503;-54
2022/04/07 03:09:20;;;;;;;7.60;6.70;;;8.50;99.90;;;;;;4989935;28;20033;-55
2022/04/07 03:11:46;;;;;;;7.90;6.07;;;8.50;99.90;;;;;;4987152;28;20022;-55
2022/04/07 03:14:12;;;;;;;6.80;6.10;;;8.40;99.90;;;;;;4990229;28;20389;-54
2022/04/07 03:16:38;;;;;;;7.90;6.18;;;8.40;99.90;;;;;;4990310;28;20030;-55
2022/04/07 03:19:04;;;;;;;7.45;5.80;;;8.30;99.90;;;;;;4990506;28;20022;-56
2022/04/07 03:21:30;;;;;;;7.25;6.50;;;8.30;99.90;;;;;;4990603;28;20030;-57
2022/04/07 03:23:55;;;;;;;8.32;6.65;;;8.20;99.90;;;;;;4990184;28;20301;-55
2022/04/07 03:26:21;;;;;;;7.25;6.30;;;8.20;99.90;;;;;;4990452;28;20485;-54
2022/04/07 03:28:46;;;;;;;8.55;6.05;;;8.20;99.90;;;;;;4990276;28;20042;-56
2022/04/07 03:31:12;;;;;;;8.82;6.60;;;8.10;99.90;;;;;;4990240;28;20037;-55
2022/04/07 03:33:37;;;;;;;10.23;7.78;;;8.10;99.90;;;;;;4990074;28;20031;-52
2022/04/07 03:36:03;;;;;;;8.50;7.70;;;8.10;99.90;;;;;;4989906;28;20022;-54
2022/04/07 03:38:29;;;;;;;9.75;8.75;;;8.10;99.90;;;;;;4990108;28;20035;-53
2022/04/07 03:40:54;;;;;;;10.65;9.18;;;8.10;99.90;;;;;;4990221;28;20034;-52
2022/04/07 03:43:21;;;;;;;13.65;10.05;;;8.10;99.90;;;;;;4989645;28;20035;-56
2022/04/07 03:45:46;;;;;;;12.45;10.38;;;8.10;99.90;;;;;;4990191;28;20061;-52
2022/04/07 03:48:12;;;;;;;11.82;10.63;;;8.10;99.90;;;;;;4990260;28;20501;-52
2022/04/07 03:50:38;;;;;;;10.88;8.68;;;8.10;99.90;;;;;;4989984;28;20081;-58
2022/04/07 03:53:04;;;;;;;13.23;10.48;;;8.10;99.90;;;;;;4989431;28;20084;-54
2022/04/07 03:55:30;;;;;;;13.80;11.18;;;8.20;99.90;;;;;;4988568;28;20034;-53
2022/04/07 03:57:56;;;;;;;13.88;10.65;;;8.20;99.90;;;;;;4989394;28;20030;-55
2022/04/07 04:00:22;;;;;;;12.05;10.85;;;8.20;99.90;;;;;;4990187;28;20094;-53
2022/04/07 04:02:50;;;;;;;12.02;10.68;;;8.20;99.90;;;;;;4989624;28;20029;-56
2022/04/07 04:05:16;;;;;;;14.23;10.18;;;8.20;99.90;;;;;;4989746;28;20030;-51
2022/04/07 04:07:42;;;;;;;12.48;10.27;;;8.20;99.90;;;;;;4993943;28;20027;-53
2022/04/07 04:10:08;;;;;;;10.38;9.38;;;8.20;99.90;;;;;;5004080;28;20047;-54
2022/04/07 04:12:34;;;;;;;10.20;9.18;;;8.20;99.90;;;;;;4991397;28;20084;-52
2022/04/07 04:15:01;;;;;;;10.02;9.02;;;8.20;99.90;;;;;;4992710;28;20419;-56
2022/04/07 04:17:30;;;;;;;9.52;8.38;;;8.30;99.90;;;;;;4992861;28;20018;-54
2022/04/07 04:19:55;;;;;;;10.90;9.30;;;8.30;99.90;;;;;;4992863;28;20037;-52
2022/04/07 04:22:21;;;;;;;9.55;8.27;;;8.30;99.90;;;;;;4992346;28;20419;-57
2022/04/07 04:24:47;;;;;;;8.55;7.65;;;8.30;99.90;;;;;;4993198;28;20066;-52
2022/04/07 04:27:13;;;;;;;9.43;8.48;;;8.30;99.90;;;;;;4991944;28;20025;-54
2022/04/07 04:29:43;;;;;;;7.80;6.93;;;8.30;99.90;;;;;;4993000;28;20527;-53
2022/04/07 04:32:09;;;;;;;8.88;7.35;;;8.30;99.90;;;;;;4993312;28;20030;-56
2022/04/07 04:34:35;;;;;;;7.75;6.95;;;8.40;99.90;;;;;;4973325;28;20031;-58
2022/04/07 04:37:00;;;;;;;7.70;6.97;;;8.40;99.90;;;;;;4973242;28;20027;-56
2022/04/07 04:39:26;;;;;;;9.43;7.10;;;8.40;99.90;;;;;;4973749;28;20030;-54
2022/04/07 04:41:52;;;;;;;7.63;6.47;;;8.40;99.90;;;;;;4973454;28;20058;-57
2022/04/07 04:44:17;;;;;;;7.93;6.88;;;8.40;99.90;;;;;;4973363;28;20493;-55
2022/04/07 04:46:43;;;;;;;7.57;6.05;;;8.40;99.90;;;;;;4992309;28;20026;-57
2022/04/07 04:49:08;;;;;;;7.88;6.30;;;8.40;99.90;;;;;;4992911;28;20110;-53
2022/04/07 04:51:34;;;;;;;7.03;5.93;;;8.40;99.90;;;;;;4992632;28;20044;-55
2022/04/07 04:53:59;;;;;;;7.72;6.00;;;8.40;99.90;;;;;;4992249;28;20037;-57
2022/04/07 04:56:27;;;;;;;5.78;5.18;;;8.40;99.90;;;;;;4992368;28;20038;-56
2022/04/07 04:58:53;;;;;;;6.60;5.20;;;8.40;99.90;;;;;;4992768;28;20046;-54
2022/04/07 05:01:19;;;;;;;6.30;5.60;;;8.40;99.90;;;;;;4992757;28;20053;-53
2022/04/07 05:03:44;;;;;;;5.45;4.95;;;8.40;99.90;;;;;;4992250;28;20489;-53
2022/04/07 05:06:10;;;;;;;6.30;5.70;;;8.40;99.90;;;;;;4992681;28;20109;-54
2022/04/07 05:08:36;;;;;;;9.52;5.43;;;8.40;99.90;;;;;;4992587;28;20489;-56
2022/04/07 05:11:01;;;;;;;7.50;6.35;;;8.40;99.90;;;;;;4992373;28;20037;-54
2022/04/07 05:13:27;;;;;;;6.78;6.07;;;8.40;99.90;;;;;;4991783;28;20030;-56
2022/04/07 05:15:52;;;;;;;5.50;4.97;;;8.40;99.90;;;;;;4992633;28;20026;-52
2022/04/07 05:18:18;;;;;;;6.53;5.70;;;8.40;99.90;;;;;;4991712;28;20097;-53
2022/04/07 05:20:43;;;;;;;7.30;6.43;;;8.40;99.90;;;;;;4991984;28;20097;-54
2022/04/07 05:23:09;;;;;;;7.68;6.88;;;8.50;99.90;;;;;;4991757;28;20041;-53
2022/04/07 05:25:34;;;;;;;9.45;7.10;;;8.50;99.90;;;;;;4992155;28;20030;-51
2022/04/07 05:28:00;;;;;;;10.07;7.72;;;8.40;99.90;;;;;;4992059;28;20034;-56
2022/04/07 05:30:25;;;;;;;6.60;6.00;;;8.40;99.90;;;;;;4991511;28;20041;-52
2022/04/07 05:32:51;;;;;;;8.30;5.82;;;8.50;99.90;;;;;;4990199;28;20374;-57
2022/04/07 05:35:17;;;;;;;8.27;5.53;;;8.50;99.90;;;;;;4991472;28;20080;-53
2022/04/07 05:37:42;;;;;;;6.80;5.88;;;8.50;99.90;;;;;;4991684;28;20022;-52
2022/04/07 05:40:12;;;;;;;6.55;5.18;;;8.50;99.90;;;;;;4991695;28;20032;-53
2022/04/07 05:42:39;;;;;;;7.35;5.30;;;8.50;99.90;;;;;;4991536;28;20026;-55
2022/04/07 05:45:05;;;;;;;6.45;5.80;;;8.50;99.90;;;;;;4991983;28;20500;-54
2022/04/07 05:47:37;;;;;;;6.20;4.60;;;8.50;99.90;;;;;;4994798;28;20496;-52
2022/04/07 05:50:03;;;;;;;6.07;4.65;;;8.50;99.90;;;;;;4999551;28;20030;-54
2022/04/07 05:52:28;;;;;;;5.75;4.28;;;8.50;99.90;;;;;;4991434;28;20372;-52
2022/04/07 05:54:54;;;;;;;4.65;4.25;;;8.50;99.90;;;;;;4991655;28;20035;-53
2022/04/07 05:57:22;;;;;;;6.55;4.85;;;8.50;99.90;;;;;;4991499;28;20089;-56
2022/04/07 05:59:47;;;;;;;4.68;4.22;;;8.50;99.90;;;;;;4973092;28;20018;-54
2022/04/07 06:02:13;;;;;;;4.95;4.45;;;8.50;99.90;;;;;;4971133;28;20034;-54
2022/04/07 06:04:40;;;;;;;6.18;3.47;;;8.40;99.90;;;;;;4971439;28;20386;-56
2022/04/07 06:07:06;;;;;;;5.43;3.95;;;8.40;99.90;;;;;;4970714;28;20056;-54
2022/04/07 06:09:33;;;;;;;5.13;3.40;;;8.30;99.90;;;;;;4971935;28;20042;-55
2022/04/07 06:11:58;;;;;;;4.45;4.05;;;8.30;99.90;;;;;;4971691;28;20019;-54
2022/04/07 06:14:24;;;;;;;7.65;4.25;;;8.30;99.90;;;;;;4971625;28;20042;-54
2022/04/07 06:16:49;;;;;;;6.03;4.13;;;8.30;99.90;;;;;;4971654;28;20046;-54
2022/04/07 06:19:15;;;;;;;4.63;4.03;;;8.30;99.90;;;;;;4970419;28;20033;-56
2022/04/07 06:21:43;;;;;;;9.23;4.22;;;8.30;99.90;;;;;;4971703;28;20061;-53
2022/04/07 06:24:08;;;;;;;4.55;4.07;;;8.30;99.90;;;;;;4977825;28;20026;-56
2022/04/07 06:26:34;;;;;;;5.10;4.05;;;8.30;99.90;;;;;;4991329;28;20026;-52
2022/04/07 06:28:59;;;;;;;4.32;3.92;;;8.30;99.90;;;;;;4990945;28;20121;-53
2022/04/07 06:31:26;;;;;;;6.43;3.80;;;8.40;99.90;;;;;;4979686;28;20059;-55
2022/04/07 06:33:51;;;;;;;5.72;3.65;;;8.30;99.90;;;;;;4987406;28;20057;-54
2022/04/07 06:36:17;;;;;;;5.80;3.80;;;8.40;99.90;;;;;;4990742;28;20062;-57
2022/04/07 06:38:42;;;;;;;5.65;3.85;;;8.40;99.90;;;;;;4990906;28;20088;-56
2022/04/07 06:41:08;;;;;;;6.72;3.50;;;8.40;99.90;;;;;;4989268;28;20038;-51
2022/04/07 06:43:33;;;;;;;6.47;4.47;;;8.50;99.90;;;;;;4990608;28;20028;-56
2022/04/07 06:45:59;;;;;;;5.85;4.75;;;8.50;99.90;;;;;;4990466;28;20077;-57
2022/04/07 06:48:24;;;;;;;6.20;4.82;;;8.60;99.90;;;;;;4990565;28;20033;-54
2022/04/07 06:50:50;;;;;;;8.18;4.97;;;8.70;99.90;;;;;;4989197;28;20018;-55
2022/04/07 06:53:16;;;;;;;6.45;5.30;;;8.70;99.90;;;;;;4990222;28;20019;-53
2022/04/07 06:55:43;;;;;;;6.88;4.68;;;8.70;99.90;;;;;;4990241;28;20030;-51
2022/04/07 06:58:10;;;;;;;5.60;5.10;;;8.80;99.90;;;;;;4989434;28;20443;-54
2022/04/07 07:00:48;;;;;;;8.30;6.00;;;8.80;99.90;;;;;;4988857;28;20413;-53
2022/04/07 07:03:15;;;;;;;6.97;5.00;;;8.80;99.90;;;;;;4972158;28;20059;-56
2022/04/07 07:05:41;;;;;;;7.93;5.38;;;8.90;99.90;;;;;;4989050;28;20122;-54
2022/04/07 07:08:18;;;;;;;6.88;4.80;;;8.90;99.90;;;;;;4990517;28;20038;-52
2022/04/07 07:10:46;;;;;;;9.30;5.63;;;8.90;99.90;;;;;;4990618;28;20030;-56
2022/04/07 07:13:13;;;;;;;7.15;5.13;;;9.00;99.90;;;;;;4990307;28;20108;-57
2022/04/07 07:15:39;;;;;;;5.50;4.85;;;9.10;99.90;;;;;;4990146;28;20174;-56
2022/04/07 07:18:05;;;;;;;8.10;5.60;;;9.10;99.90;;;;;;4990198;28;20092;-56
2022/04/07 07:20:31;;;;;;;6.90;5.95;;;9.20;99.90;;;;;;4990293;28;20705;-53
2022/04/07 07:22:56;;;;;;;9.73;5.65;;;9.20;99.90;;;;;;4989769;28;20025;-52
2022/04/07 07:25:22;;;;;;;7.75;5.40;;;9.30;99.90;;;;;;4990202;28;20030;-51
2022/04/07 07:27:48;;;;;;;8.27;5.13;;;9.40;99.90;;;;;;4988821;28;20037;-52
2022/04/07 07:30:15;;;;;;;8.65;4.60;;;9.50;99.90;;;;;;4989804;28;20035;-55
2022/04/07 07:32:46;;;;;;;8.02;4.40;;;9.50;99.90;;;;;;4998677;28;20030;-52
2022/04/07 07:35:13;;;;;;;8.43;5.10;;;9.40;99.90;;;;;;5008460;28;20562;-54
2022/04/07 07:37:56;;;;;;;7.78;4.07;;;9.40;99.90;;;;;;4989989;28;20061;-54
2022/04/07 07:40:24;;;;;;;10.27;4.70;;;9.30;99.90;;;;;;4989520;28;20544;-54
2022/04/07 07:42:53;;;;;;;9.80;4.53;;;9.30;99.90;;;;;;4993582;28;20032;-57
2022/04/07 07:45:18;;;;;;;7.30;4.20;;;9.30;99.90;;;;;;4993811;28;20022;-55
2022/04/07 07:47:44;;;;;;;5.70;4.20;;;9.20;99.90;;;;;;4993986;28;20640;-55
2022/04/07 07:50:10;;;;;;;7.72;4.68;;;9.10;99.90;;;;;;4993855;28;20057;-53
2022/04/07 07:52:36;;;;;;;5.78;4.25;;;9.10;99.90;;;;;;4993429;28;20054;-54
2022/04/07 07:55:02;;;;;;;5.93;3.60;;;9.00;99.90;;;;;;4993355;28;20069;-58
2022/04/07 07:57:28;;;;;;;7.93;4.13;;;9.00;99.90;;;;;;4993361;28;20042;-55
2022/04/07 07:59:54;;;;;;;6.03;4.28;;;8.90;99.90;;;;;;4993363;28;20092;-56
2022/04/07 08:02:19;;;;;;;6.72;4.18;;;8.90;99.90;;;;;;4993392;28;20026;-57
2022/04/07 08:04:45;;;;;;;6.30;4.13;;;8.80;99.90;;;;;;4993120;28;20042;-57
2022/04/07 08:07:11;;;;;;;4.90;3.55;;;8.80;99.90;;;;;;4993846;28;20450;-54
2022/04/07 08:09:37;;;;;;;6.78;3.67;;;8.70;99.90;;;;;;4993231;28;20034;-57
2022/04/07 08:12:03;;;;;;;8.75;3.85;;;8.70;99.90;;;;;;4993370;28;20113;-56
2022/04/07 08:14:29;;;;;;;6.03;4.03;;;8.70;99.90;;;;;;4992400;28;20345;-58
2022/04/07 08:16:55;;;;;;;7.03;4.15;;;8.70;99.90;;;;;;4993243;28;20499;-54
2022/04/07 08:19:21;;;;;;;5.82;3.63;;;8.70;99.90;;;;;;4993027;28;20068;-54
2022/04/07 08:21:47;;;;;;;7.35;3.78;;;8.70;99.90;;;;;;4992936;28;20029;-54
2022/04/07 08:24:12;;;;;;;4.45;3.95;;;8.70;99.90;;;;;;4992568;28;20034;-54
2022/04/07 08:26:38;;;;;;;9.07;3.95;;;8.70;99.90;;;;;;4993547;28;20034;-54
2022/04/07 08:29:03;;;;;;;8.85;3.58;;;8.70;99.90;;;;;;4993134;28;20511;-52
2022/04/07 08:31:29;;;;;;;6.18;3.70;;;8.70;99.90;;;;;;4993329;28;20022;-57
2022/04/07 08:33:54;;;;;;;7.93;4.25;;;8.70;99.90;;;;;;4992685;28;20023;-56
2022/04/07 08:36:20;;;;;;;11.57;3.95;;;8.70;99.90;;;;;;4990748;28;20034;-56
2022/04/07 08:38:45;;;;;;;6.50;3.17;;;8.70;99.90;;;;;;4992839;28;20018;-58
2022/04/07 08:41:12;;;;;;;6.70;3.75;;;8.70;99.90;;;;;;4993198;28;20508;-56
2022/04/07 08:43:42;;;;;;;7.13;4.65;;;8.70;99.90;;;;;;4992501;28;20536;-58
2022/04/07 08:46:09;;;;;;;3.67;2.97;;;8.70;99.90;;;;;;4992620;28;20034;-55
2022/04/07 08:48:42;;;;;;;7.68;3.78;;;8.60;99.90;;;;;;4992834;28;20030;-56
2022/04/07 08:51:08;;;;;;;6.63;3.15;;;8.70;99.90;;;;;;4992665;28;20092;-56
2022/04/07 08:53:39;;;;;;;4.30;2.92;;;8.60;99.90;;;;;;4990941;28;20058;-58
2022/04/07 08:56:06;;;;;;;5.95;3.17;;;8.60;99.90;;;;;;4992640;28;20528;-55
2022/04/07 08:58:32;;;;;;;4.70;2.75;;;8.60;99.90;;;;;;4992917;28;20117;-57
2022/04/07 09:00:59;;;;;;;6.85;3.22;;;8.50;99.90;;;;;;4992642;28;20101;-56
2022/04/07 09:03:25;;;;;;;3.83;2.10;;;8.50;99.90;;;;;;4991974;28;20030;-58
2022/04/07 09:05:56;;;;;;;2.20;0.57;;;8.40;99.90;;;;;;4992830;28;20109;-60
2022/04/07 09:08:32;;;;;;;0.50;0.38;;;7.60;99.90;;;;;;4993130;28;20033;-59
2022/04/07 09:11:00;;;;;;;1.52;0.82;;;7.10;99.90;;;;;;4993065;28;20027;-58
2022/04/07 09:13:40;;;;;;;0.32;0.30;;;6.90;99.90;;;;;;4992420;28;20024;-56
2022/04/07 09:16:08;;;;;;;0.43;0.35;;;6.60;99.90;;;;;;4992116;28;20105;-53
2022/04/07 09:18:37;;;;;;;0.30;0.30;;;6.40;99.90;;;;;;4992446;28;20089;-58
2022/04/07 09:21:04;;;;;;;1.20;0.50;;;6.20;99.90;;;;;;4992510;28;20133;-57
2022/04/07 09:23:40;;;;;;;1.70;0.52;;;6.10;99.90;;;;;;4991947;28;20633;-56
2022/04/07 09:26:10;;;;;;;0.65;0.40;;;6.10;99.90;;;;;;4992132;28;20033;-51
2022/04/07 09:28:36;;;;;;;0.73;0.40;;;6.10;99.90;;;;;;4992023;28;20555;-54
2022/04/07 09:31:01;;;;;;;1.05;0.63;;;6.10;99.90;;;;;;4991659;28;20031;-54
2022/04/07 09:33:29;;;;;;;0.50;0.45;;;6.10;99.90;;;;;;4991539;28;20076;-54
2022/04/07 09:36:05;;;;;;;0.57;0.30;;;6.10;99.90;;;;;;4993915;28;20640;-55
2022/04/07 09:38:31;;;;;;;0.93;0.60;;;6.10;99.90;;;;;;4995575;28;20019;-57
2022/04/07 09:41:11;;;;;;;1.75;0.70;;;6.10;99.90;;;;;;4995950;28;20095;-53
2022/04/07 09:43:48;;;;;;;0.95;0.40;;;6.20;99.90;;;;;;4995918;28;20057;-53
2022/04/07 09:46:18;;;;;;;3.05;0.32;;;6.20;99.90;;;;;;4993412;28;20097;-54
2022/04/07 09:49:03;;;;;;;1.60;0.63;;;6.20;99.90;;;;;;5012515;28;20030;-54
2022/04/07 09:51:29;;;;;;;1.33;0.80;;;6.30;99.90;;;;;;4993624;28;20663;-55
2022/04/07 09:53:56;;;;;;;0.20;0.20;;;6.30;99.90;;;;;;4997022;28;20041;-52
2022/04/07 09:56:27;;;;;;;1.38;0.70;;;6.30;99.90;;;;;;4999769;28;20037;-54
2022/04/07 09:58:54;;;;;;;0.22;0.22;;;6.40;99.90;;;;;;5001609;28;20031;-54
2022/04/07 10:01:20;;;;;;;0.90;0.47;;;6.30;99.90;;;;;;4995839;28;20489;-52
2022/04/07 10:03:49;;;;;;;1.75;0.60;;;6.30;99.90;;;;;;4990899;28;20034;-55
2022/04/07 10:06:16;;;;;;;0.98;0.40;;;6.20;99.90;;;;;;4991104;28;20084;-51
2022/04/07 10:08:42;;;;;;;2.85;0.63;;;6.20;99.90;;;;;;4991560;28;20516;-56
2022/04/07 10:11:08;;;;;;;0.22;0.20;;;6.10;99.90;;;;;;4991390;28;20060;-53
2022/04/07 10:13:38;;;;;;;3.28;0.63;;;6.10;99.90;;;;;;4991044;28;20045;-56
2022/04/07 10:16:04;;;;;;;0.85;0.47;;;6.10;99.90;;;;;;4987309;28;20027;-54
2022/04/07 10:18:39;;;;;;;0.40;0.40;;;6.00;99.90;;;;;;4991173;28;20075;-55
2022/04/07 10:21:10;;;;;;;1.95;0.40;;;6.00;99.90;;;;;;4991188;28;20508;-55
2022/04/07 10:24:17;;;;;;;1.20;0.45;;;6.00;99.90;;;;;;4990873;28;20026;-56
2022/04/07 10:26:46;;;;;;;2.50;0.52;;;6.00;99.90;;;;;;4969280;28;20046;-56
2022/04/07 10:29:23;;;;;;;0.40;0.40;;;6.00;99.90;;;;;;4990436;28;20026;-54
2022/04/07 10:32:10;;;;;;;0.47;0.45;;;5.90;99.90;;;;;;4991111;28;20181;-57
2022/04/07 10:34:36;;;;;;;1.83;0.50;;;5.80;99.90;;;;;;4989547;28;20046;-55
2022/04/07 10:37:04;;;;;;;2.08;0.70;;;5.80;99.90;;;;;;4990927;28;20523;-55
2022/04/07 10:39:35;;;;;;;0.68;0.50;;;5.80;99.90;;;;;;4990718;28;20065;-54
2022/04/07 10:42:01;;;;;;;1.48;0.40;;;5.70;99.90;;;;;;4998881;28;20032;-53
2022/04/07 10:44:28;;;;;;;2.00;0.60;;;5.70;99.90;;;;;;5006071;28;20025;-56
2022/04/07 10:47:04;;;;;;;1.52;0.60;;;5.70;99.90;;;;;;5010453;28;20178;-58
2022/04/07 10:49:31;;;;;;;1.33;0.47;;;5.70;99.90;;;;;;5010375;28;20029;-56
2022/04/07 10:51:59;;;;;;;1.92;0.85;;;5.70;99.90;;;;;;5010102;28;20029;-57
2022/04/07 10:54:28;;;;;;;0.68;0.50;;;5.70;99.90;;;;;;5010189;28;20026;-53
2022/04/07 10:56:56;;;;;;;2.10;0.55;;;5.80;99.90;;;;;;5010072;28;20030;-56
2022/04/07 10:59:27;;;;;;;1.90;0.60;;;5.70;99.90;;;;;;5010174;28;20041;-55
2022/04/07 11:02:12;;;;;;;1.40;0.40;;;5.70;99.90;;;;;;5010451;28;20022;-56
2022/04/07 11:05:08;;;;;;;0.57;0.47;;;5.70;99.90;;;;;;5010255;28;20443;-55
2022/04/07 11:07:50;;;;;;;0.75;0.50;;;5.70;99.90;;;;;;5005164;28;20703;-51
2022/04/07 11:10:16;;;;;;;0.75;0.50;;;5.60;99.90;;;;;;4990181;28;20032;-57
2022/04/07 11:13:00;;;;;;;2.10;0.60;;;5.60;99.90;;;;;;4989586;28;20018;-54
2022/04/07 11:15:33;;;;;;;0.88;0.40;;;5.60;99.90;;;;;;4996865;28;20022;-54
2022/04/07 11:18:13;;;;;;;0.52;0.52;;;5.70;99.90;;;;;;4992640;28;20025;-57
2022/04/07 11:20:59;;;;;;;0.98;0.50;;;6.00;99.90;;;;;;5005044;28;20036;-57
2022/04/07 11:23:51;;;;;;;0.57;0.52;;;6.20;99.90;;;;;;4988913;28;20022;-55
2022/04/07 11:26:24;;;;;;;2.33;0.60;;;6.40;99.90;;;;;;4988667;28;20125;-53
2022/04/07 11:28:58;;;;;;;1.85;0.60;;;6.70;99.90;;;;;;4990186;28;20069;-54
2022/04/07 11:31:41;;;;;;;0.65;0.50;;;6.90;99.90;;;;;;4986773;28;20030;-52
2022/04/07 11:34:42;;;;;;;1.08;0.98;;;7.10;99.90;;;;;;4989325;28;20113;-54
2022/04/07 11:37:15;;;;;;;2.53;1.10;;;7.10;99.90;;;;;;4990220;28;20026;-53
2022/04/07 11:39:49;;;;;;;1.50;1.20;;;7.10;99.90;;;;;;4988271;28;20038;-56
2022/04/07 11:42:17;;;;;;;5.22;1.13;;;7.10;99.90;;;;;;4990283;28;20432;-52
2022/04/07 11:44:45;;;;;;;1.65;1.40;;;7.20;99.90;;;;;;4989728;28;20121;-53
2022/04/07 11:47:29;;;;;;;3.05;1.55;;;7.30;99.90;;;;;;4990320;28;20031;-55
2022/04/07 11:49:54;;;;;;;2.38;1.33;;;7.40;99.90;;;;;;4970574;28;20052;-55
2022/04/07 11:52:25;;;;;;;3.03;1.38;;;7.50;99.90;;;;;;4970117;28;20378;-53
2022/04/07 11:54:55;;;;;;;3.53;1.65;;;7.60;99.90;;;;;;4989075;28;20031;-53
2022/04/07 11:57:23;;;;;;;4.00;1.60;;;7.60;99.90;;;;;;4989546;28;20062;-55
2022/04/07 11:59:49;;;;;;;3.08;2.20;;;7.60;99.90;;;;;;4988518;28;20034;-54
2022/04/07 12:02:22;;;;;;;2.50;1.85;;;7.70;99.90;;;;;;4989214;28;20023;-51
2022/04/07 12:05:02;;;;;;;2.65;1.60;;;7.90;99.90;;;;;;4975097;28;20404;-53
2022/04/07 12:07:28;;;;;;;4.00;1.98;;;8.00;99.90;;;;;;4989397;28;20101;-54
2022/04/07 12:09:58;;;;;;;5.60;2.22;;;8.10;99.90;;;;;;4989265;28;20030;-51
2022/04/07 12:12:25;;;;;;;3.47;2.20;;;8.20;99.90;;;;;;4988185;28;20058;-51
2022/04/07 12:14:51;;;;;;;4.75;1.83;;;8.30;99.90;;;;;;4989263;28;20077;-53
2022/04/07 12:17:17;;;;;;;2.05;1.65;;;8.40;99.90;;;;;;4989083;28;20030;-52
2022/04/07 12:19:46;;;;;;;2.33;1.67;;;8.40;99.90;;;;;;4989244;28;20026;-54
2022/04/07 12:22:16;;;;;;;3.05;1.80;;;8.60;99.90;;;;;;4989776;28;20515;-53
2022/04/07 12:25:03;;;;;;;3.22;1.48;;;8.80;99.90;;;;;;4989444;28;20037;-52
2022/04/07 12:27:31;;;;;;;3.20;1.77;;;8.90;99.90;;;;;;4990178;28;20465;-54
2022/04/07 12:29:58;;;;;;;2.40;1.98;;;9.00;99.90;;;;;;4993251;28;20030;-56
2022/04/07 12:32:25;;;;;;;2.00;1.80;;;8.90;99.90;;;;;;4992559;28;20054;-56
2022/04/07 12:34:50;;;;;;;4.18;1.42;;;8.80;99.90;;;;;;4991964;28;20034;-54
2022/04/07 12:37:36;;;;;;;5.18;1.65;;;8.90;99.90;;;;;;4992360;28;20045;-56
2022/04/07 12:40:04;;;;;;;2.47;1.60;;;9.00;99.90;;;;;;4991521;28;20555;-51
2022/04/07 12:42:29;;;;;;;2.63;1.83;;;9.10;99.90;;;;;;4995283;28;20396;-51
2022/04/07 12:45:08;;;;;;;3.67;1.80;;;9.20;99.90;;;;;;4991734;28;20034;-54
2022/04/07 12:47:34;;;;;;;2.47;1.60;;;9.30;99.90;;;;;;4985654;28;20061;-50
2022/04/07 12:50:01;;;;;;;3.55;1.83;;;9.40;99.90;;;;;;4992531;28;20081;-52
2022/04/07 12:52:37;;;;;;;2.60;1.63;;;9.50;99.90;;;;;;4991969;28;20129;-52
2022/04/07 12:55:15;;;;;;;5.03;1.60;;;9.60;99.90;;;;;;4992354;28;20133;-51
2022/04/07 12:57:42;;;;;;;1.60;1.40;;;9.60;99.90;;;;;;4992293;28;20056;-51
2022/04/07 13:00:12;;;;;;;2.08;1.50;;;9.70;99.90;;;;;;4991255;28;20057;-55